Aeroporto :
LOGIN :

Iscrizione | Disclaimer

   EN    FR    IT 

 










Sommario :    VFR   VFR Marginale   IFR   IFR Intensivo   IFR Molto Intensivo
Visibilità : 
Base nubi : 
>= 8 km
>= 3000ft
5 / 8 km
1000 / 3000 ft
1500m / 5 km
500 / 1000 ft
800 / 1500m
200 / 500 ft
< 800m
< 200 ft
Simboli :   Temporali  Nebbia  Neve Forte  Precipitazioni Forti  Vento > 20 kt
SIGMETs :   Varie  Temporali  Ghiacco  Turbolenza  Onda orograficha  Ceneri Vulcaniche






- Altitudine del aeroporto : 22 ft
- Codice IATA : TUN


DTTA - Tunis Carthage

ULTIMO METAR :
  • 091600Z 02009KT 9999 FEW023 19/10 Q1020

METARs OBSOLETI :
  • 091530Z 02010KT 9999 FEW023 19/08 Q1020
  • 091500Z 03008KT 360V070 9999 FEW023 19/11 Q1021
  • 091430Z 02009KT 360V060 9999 FEW023 19/09 Q1021
  • 091400Z 04008KT 350V090 9999 FEW023 20/11 Q1021
  • 091330Z 01008KT 340V040 CAVOK 20/11 Q1021

TAF TAF DTTA
Valido dal 09 a 12 ore il 10 a 12 ore UTC


091100Z 0912/1012 36009KT 9999 SCT020
BECMG 0912/0914 06010KT
BECMG 0918/0920 VRB04KT
PROB30 1004/1008 3000 BR
BECMG 1008/1010 13010KT



MetMap, La meteo Aeronautica in un colpo d'occhio ! - Copyright ORBIFLY Dicembre 2007 - Disclaimer

ORBIFLY MET'MAP TEAM :

Programmazione e sviluppo : Alexandra Zaïnal
Concezione : Baudouin d'Aumeries
Aiuto per la programmazione : Marc-Olivier Méhu
Supporto tecnico e logistico : Manuel Goepfert
Aiuto per la traduzione : Arnaldo La Scala

Contatto : metmap@orbifly.com




FONTI E CREDITI :

   NOAA